Chihaya Maru — JG5612 — position and weather

sailwx.info

Track history (hours):
 
Tides and Currents Weather Stations Pressure Air Temp Water Temp Dewpoint Dewpoint Depression Visibility Wind Speed Wind Dir Waves Ship Positions

Chihaya Maru

Last reported at 2018-Jul-20 21:41 UTC. Time now 2018-Jul-22 06:28 UTC.
Position N 35°00' E 140°14'.

Length 135 m; draft 5.1 m.

Type: Cargo ship. MMSI: 431100906.

Date/timePositionNaut miles runAvg speedWind from/ knotsBaromVisibWave heightAir tempDewpointWater temp
2018-Jul-20 21:41N 35°00' E 140°14'512.8
2018-Jul-20 21:17N 34°58' E 140°09'413.3
2018-Jul-20 21:00N 34°56' E 140°05'1114.0
2018-Jul-20 20:14N 34°51' E 139°53'413.9
2018-Jul-20 19:58N 34°52' E 139°49'613.3
2018-Jul-20 19:30N 34°56' E 139°43'612.0
2018-Jul-20 19:00N 35°02' E 139°42'611.9
2018-Jul-20 18:30N 35°08' E 139°44'612.1
2018-Jul-20 18:00N 35°13' E 139°46'612.1
2018-Jul-20 17:30N 35°19' E 139°43'611.5
2018-Jul-20 17:00N 35°25' E 139°43'612.4
2018-Jul-20 16:30N 35°28' E 139°49'610.7
2018-Jul-20 15:58N 35°33' E 139°52'4 9.3
2018-Jul-20 15:30N 35°37' E 139°49'0 0.0
2018-Jul-20 12:33N 35°37' E 139°50'0 0.0
2018-Jul-20 12:09N 35°37' E 139°50'0 0.0
2018-Jul-20 08:03N 35°37' E 139°50'0 0.0
2018-Jul-20 07:51N 35°37' E 139°50'0 0.0
2018-Jul-20 03:54N 35°37' E 139°50'2 4.3
2018-Jul-20 03:30N 35°36' E 139°50'611.5
2018-Jul-20 03:00N 35°30' E 139°52'611.7
2018-Jul-20 02:30N 35°26' E 139°48'611.6
2018-Jul-20 02:00N 35°20' E 139°45'510.7
2018-Jul-20 01:30N 35°15' E 139°47'611.9
2018-Jul-20 01:00N 35°09' E 139°47'612.1
2018-Jul-20 00:30N 35°04' E 139°45'611.3
2018-Jul-19 23:59N 34°58' E 139°43'5 9.7
2018-Jul-19 23:28N 34°54' E 139°47'  
2018-Jul-11 11:00N 35°04' E 140°22'1313.1
2018-Jul-11 10:01N 34°57' E 140°09'1512.1
2018-Jul-11 08:47N 34°51' E 139°52'413.3
2018-Jul-11 08:30N 34°52' E 139°48'714.6
2018-Jul-11 08:00N 34°58' E 139°43'612.1
2018-Jul-11 07:30N 35°04' E 139°43'612.1
2018-Jul-11 07:00N 35°09' E 139°45'611.8
2018-Jul-11 06:30N 35°15' E 139°46'611.4
2018-Jul-11 06:00N 35°20' E 139°42'510.6
2018-Jul-11 05:30N 35°25' E 139°41'1 1.0
2018-Jul-11 04:59N 35°26' E 139°41'0 0.0
2018-Jul-11 04:29N 35°26' E 139°41'0 0.0
2018-Jul-11 03:59N 35°26' E 139°41'0 0.0
2018-Jul-11 03:26N 35°26' E 139°41'0 0.0
2018-Jul-11 02:59N 35°26' E 139°41'0 0.0
2018-Jul-11 02:29N 35°26' E 139°41'0 0.0
2018-Jul-11 01:56N 35°26' E 139°41'0 0.0
2018-Jul-11 01:29N 35°26' E 139°41'0 0.0
2018-Jul-11 00:59N 35°26' E 139°41'0 0.0
2018-Jul-11 00:29N 35°26' E 139°41'0 0.0
2018-Jul-10 23:59N 35°26' E 139°41'0 0.0
2018-Jul-10 23:29N 35°26' E 139°41'0 0.0
2018-Jul-10 22:56N 35°26' E 139°41'0 0.0
2018-Jul-10 22:29N 35°26' E 139°41'0 0.5
2018-Jul-10 22:00N 35°25' E 139°41'  
Track history (hours):
 
Tides and Currents Weather Stations Pressure Air Temp Water Temp Dewpoint Dewpoint Depression Visibility Wind Speed Wind Dir Waves Ship Positions

Chihaya Maru

Last reported at 2018-Jul-20 21:41 UTC. Time now 2018-Jul-22 06:28 UTC.
Position N 35°00' E 140°14'.

Length 135 m; draft 5.1 m.

Type: Cargo ship. MMSI: 431100906.

Date/timePositionNaut miles runAvg speedWind from/ knotsBaromVisibWave heightAir tempDewpointWater temp
2018-Jul-20 21:41N 35°00' E 140°14'512.8
2018-Jul-20 21:17N 34°58' E 140°09'413.3
2018-Jul-20 21:00N 34°56' E 140°05'1114.0
2018-Jul-20 20:14N 34°51' E 139°53'413.9
2018-Jul-20 19:58N 34°52' E 139°49'613.3
2018-Jul-20 19:30N 34°56' E 139°43'612.0
2018-Jul-20 19:00N 35°02' E 139°42'611.9
2018-Jul-20 18:30N 35°08' E 139°44'612.1
2018-Jul-20 18:00N 35°13' E 139°46'612.1
2018-Jul-20 17:30N 35°19' E 139°43'611.5
2018-Jul-20 17:00N 35°25' E 139°43'612.4
2018-Jul-20 16:30N 35°28' E 139°49'610.7
2018-Jul-20 15:58N 35°33' E 139°52'4 9.3
2018-Jul-20 15:30N 35°37' E 139°49'0 0.0
2018-Jul-20 12:33N 35°37' E 139°50'0 0.0
2018-Jul-20 12:09N 35°37' E 139°50'0 0.0
2018-Jul-20 08:03N 35°37' E 139°50'0 0.0
2018-Jul-20 07:51N 35°37' E 139°50'0 0.0
2018-Jul-20 03:54N 35°37' E 139°50'2 4.3
2018-Jul-20 03:30N 35°36' E 139°50'611.5
2018-Jul-20 03:00N 35°30' E 139°52'611.7
2018-Jul-20 02:30N 35°26' E 139°48'611.6
2018-Jul-20 02:00N 35°20' E 139°45'510.7
2018-Jul-20 01:30N 35°15' E 139°47'611.9
2018-Jul-20 01:00N 35°09' E 139°47'612.1
2018-Jul-20 00:30N 35°04' E 139°45'611.3
2018-Jul-19 23:59N 34°58' E 139°43'5 9.7
2018-Jul-19 23:28N 34°54' E 139°47'  
2018-Jul-11 11:00N 35°04' E 140°22'1313.1
2018-Jul-11 10:01N 34°57' E 140°09'1512.1
2018-Jul-11 08:47N 34°51' E 139°52'413.3
2018-Jul-11 08:30N 34°52' E 139°48'714.6
2018-Jul-11 08:00N 34°58' E 139°43'612.1
2018-Jul-11 07:30N 35°04' E 139°43'612.1
2018-Jul-11 07:00N 35°09' E 139°45'611.8
2018-Jul-11 06:30N 35°15' E 139°46'611.4
2018-Jul-11 06:00N 35°20' E 139°42'510.6
2018-Jul-11 05:30N 35°25' E 139°41'1 1.0
2018-Jul-11 04:59N 35°26' E 139°41'0 0.0
2018-Jul-11 04:29N 35°26' E 139°41'0 0.0
2018-Jul-11 03:59N 35°26' E 139°41'0 0.0
2018-Jul-11 03:26N 35°26' E 139°41'0 0.0
2018-Jul-11 02:59N 35°26' E 139°41'0 0.0
2018-Jul-11 02:29N 35°26' E 139°41'0 0.0
2018-Jul-11 01:56N 35°26' E 139°41'0 0.0
2018-Jul-11 01:29N 35°26' E 139°41'0 0.0
2018-Jul-11 00:59N 35°26' E 139°41'0 0.0
2018-Jul-11 00:29N 35°26' E 139°41'0 0.0
2018-Jul-10 23:59N 35°26' E 139°41'0 0.0
2018-Jul-10 23:29N 35°26' E 139°41'0 0.0
2018-Jul-10 22:56N 35°26' E 139°41'0 0.0
2018-Jul-10 22:29N 35°26' E 139°41'0 0.5
2018-Jul-10 22:00N 35°25' E 139°41'  

Dump ship's entire track history